Time;durP1;ratioP1;P1;durP2;ratioP2;P2;SDS_P1;SDS_P2;PMS_P1;PMS_P2;Temp;Humidity;BMP_temperature;BMP_pressure;BME280_temperature;BME280_humidity;BME280_pressure;Samples;Min_cycle;Max_cycle;Signal;HPM_P1;HPM_P2
2022/08/10 00:00:30;;;;;;;2.30;2.10;;;24.90;38.90;;;;;;5033125;28;20629;-45
2022/08/10 00:02:58;;;;;;;3.17;2.63;;;24.80;39.10;;;;;;5033588;28;20514;-45
2022/08/10 00:05:25;;;;;;;2.70;2.50;;;24.90;39.10;;;;;;5032073;28;20252;-44
2022/08/10 00:07:50;;;;;;;2.67;2.47;;;24.90;39.00;;;;;;5033220;28;20776;-48
2022/08/10 00:10:19;;;;;;;2.63;2.43;;;25.00;39.20;;;;;;5033190;28;20450;-46
2022/08/10 00:12:45;;;;;;;3.90;2.40;;;24.80;39.30;;;;;;5033909;28;20672;-45
2022/08/10 00:15:14;;;;;;;3.13;2.80;;;24.70;39.70;;;;;;5032990;28;20811;-45
2022/08/10 00:17:40;;;;;;;2.47;2.23;;;24.50;40.00;;;;;;5032598;28;20951;-44
2022/08/10 00:20:06;;;;;;;2.80;2.40;;;24.50;40.10;;;;;;5032720;28;20432;-45
2022/08/10 00:22:32;;;;;;;3.20;2.90;;;24.50;40.30;;;;;;5031725;28;20200;-46
2022/08/10 00:24:59;;;;;;;3.80;2.90;;;24.40;40.30;;;;;;5032731;28;20425;-44
2022/08/10 00:27:26;;;;;;;5.40;2.93;;;24.20;40.60;;;;;;5032632;28;20241;-45
2022/08/10 00:29:52;;;;;;;3.40;2.40;;;24.30;40.50;;;;;;5032725;28;20793;-45
2022/08/10 00:32:18;;;;;;;2.97;2.77;;;24.40;40.20;;;;;;5033136;28;20424;-47
2022/08/10 00:34:46;;;;;;;2.80;2.43;;;24.50;40.00;;;;;;5032600;28;20197;-44
2022/08/10 00:37:13;;;;;;;2.80;2.33;;;24.60;39.90;;;;;;5032593;28;20543;-44
2022/08/10 00:39:39;;;;;;;2.87;2.67;;;24.50;40.00;;;;;;5032256;28;20439;-45
2022/08/10 00:42:09;;;;;;;3.00;2.80;;;24.50;40.30;;;;;;5033078;28;20423;-45
2022/08/10 00:44:43;;;;;;;2.93;2.73;;;24.50;40.20;;;;;;5032732;28;20872;-48
2022/08/10 00:47:10;;;;;;;4.37;3.13;;;24.40;40.50;;;;;;5032486;28;20443;-45
2022/08/10 00:49:36;;;;;;;3.17;2.97;;;24.10;41.10;;;;;;5031842;28;20421;-46
2022/08/10 00:52:03;;;;;;;4.00;2.80;;;24.10;41.20;;;;;;5052548;28;20458;-48
2022/08/10 00:54:29;;;;;;;2.67;2.57;;;24.20;41.00;;;;;;5037195;28;20904;-44
2022/08/10 00:56:56;;;;;;;2.70;2.30;;;24.20;41.10;;;;;;5032482;28;20432;-44
2022/08/10 00:59:22;;;;;;;3.43;2.53;;;24.20;41.10;;;;;;5031783;28;20567;-45
2022/08/10 01:01:48;;;;;;;2.33;2.13;;;24.20;41.40;;;;;;5032389;28;20430;-45
2022/08/10 01:04:14;;;;;;;6.70;2.50;;;24.10;41.50;;;;;;5031823;28;20424;-49
2022/08/10 01:06:56;;;;;;;4.90;2.37;;;24.20;41.40;;;;;;5030820;28;20276;-46
2022/08/10 01:09:42;;;;;;;4.80;2.80;;;24.10;41.40;;;;;;5031485;28;20536;-45
2022/08/10 01:12:14;;;;;;;3.53;3.23;;;24.00;41.60;;;;;;5032143;28;20448;-45
2022/08/10 01:14:56;;;;;;;2.87;2.63;;;24.00;41.40;;;;;;5031250;28;20992;-48
2022/08/10 01:17:47;;;;;;;4.83;3.10;;;24.10;41.30;;;;;;5030518;28;20934;-48
2022/08/10 01:20:25;;;;;;;2.73;2.53;;;24.20;41.30;;;;;;5031900;28;20432;-46
2022/08/10 01:22:53;;;;;;;2.40;2.20;;;24.20;41.10;;;;;;5032050;28;20440;-44
2022/08/10 01:25:48;;;;;;;4.27;2.70;;;24.20;41.00;;;;;;5031141;28;20876;-45
2022/08/10 01:28:23;;;;;;;2.53;2.33;;;24.40;40.90;;;;;;5032119;28;20812;-45
2022/08/10 01:30:54;;;;;;;2.40;2.30;;;24.30;40.80;;;;;;5031826;28;20423;-44
2022/08/10 01:33:31;;;;;;;2.57;2.40;;;24.30;40.80;;;;;;5031611;28;21019;-45
2022/08/10 01:36:15;;;;;;;2.60;2.40;;;24.30;41.00;;;;;;5031607;28;20510;-45
2022/08/10 01:38:47;;;;;;;3.17;2.90;;;24.30;41.00;;;;;;5031002;28;20495;-45
2022/08/10 01:41:26;;;;;;;2.70;2.50;;;24.30;41.00;;;;;;5031998;28;20427;-46
2022/08/10 01:44:04;;;;;;;2.50;2.30;;;24.30;41.10;;;;;;5030319;28;20458;-44
2022/08/10 01:46:32;;;;;;;4.27;2.97;;;24.30;41.00;;;;;;5031282;28;20436;-46
2022/08/10 01:49:01;;;;;;;3.17;2.80;;;24.50;41.00;;;;;;5031332;28;20435;-45
2022/08/10 01:51:41;;;;;;;3.67;2.23;;;24.50;40.80;;;;;;5031453;28;20432;-45
2022/08/10 01:54:12;;;;;;;2.80;2.60;;;24.50;40.80;;;;;;5031095;28;20778;-46
2022/08/10 01:56:41;;;;;;;2.47;2.27;;;24.50;40.80;;;;;;5031034;28;20483;-46
2022/08/10 01:59:13;;;;;;;3.07;2.70;;;24.50;40.90;;;;;;5031066;28;20491;-44
2022/08/10 02:01:44;;;;;;;2.97;2.70;;;24.50;40.90;;;;;;5031179;28;20439;-44
2022/08/10 02:04:11;;;;;;;2.87;2.40;;;24.50;40.90;;;;;;5031071;28;20420;-45
2022/08/10 02:06:53;;;;;;;3.10;2.63;;;24.50;40.90;;;;;;5031039;28;20443;-47
2022/08/10 02:09:26;;;;;;;3.27;2.20;;;24.50;41.00;;;;;;5029021;28;20459;-45
2022/08/10 02:11:55;;;;;;;2.80;2.60;;;24.50;41.20;;;;;;5031525;28;20458;-45
2022/08/10 02:14:24;;;;;;;2.80;2.57;;;24.40;41.20;;;;;;5030517;28;20527;-44
2022/08/10 02:16:51;;;;;;;3.20;2.93;;;24.30;41.30;;;;;;5030942;28;20786;-44
2022/08/10 02:19:22;;;;;;;4.40;2.70;;;24.30;41.40;;;;;;5030796;28;20487;-44
2022/08/10 02:21:51;;;;;;;3.33;2.93;;;24.30;41.50;;;;;;5031135;28;20436;-44
2022/08/10 02:24:19;;;;;;;2.87;2.67;;;24.30;41.50;;;;;;5030873;28;20559;-45
2022/08/10 02:26:46;;;;;;;4.87;2.80;;;24.20;41.60;;;;;;5030888;28;20423;-44
2022/08/10 02:29:15;;;;;;;3.17;2.57;;;24.20;41.70;;;;;;5030083;28;20949;-44
2022/08/10 02:31:43;;;;;;;3.73;3.33;;;24.10;41.90;;;;;;5030753;28;20938;-44
2022/08/10 02:34:11;;;;;;;2.93;2.73;;;24.00;42.00;;;;;;5030451;28;20791;-44
2022/08/10 02:36:42;;;;;;;2.70;2.60;;;24.00;42.30;;;;;;5028835;28;20428;-45
2022/08/10 02:39:11;;;;;;;3.27;2.97;;;23.90;42.40;;;;;;5030300;28;20503;-44
2022/08/10 02:41:45;;;;;;;4.60;3.20;;;23.90;42.60;;;;;;5030869;28;20448;-45
2022/08/10 02:44:42;;;;;;;3.40;2.93;;;23.90;42.80;;;;;;5030258;28;20413;-44
2022/08/10 02:47:20;;;;;;;3.00;2.80;;;23.80;42.70;;;;;;5022904;28;20963;-44
2022/08/10 02:50:15;;;;;;;3.23;2.90;;;23.80;42.80;;;;;;5030383;28;20988;-44
2022/08/10 02:52:46;;;;;;;2.83;2.67;;;23.70;43.10;;;;;;5014428;28;20535;-46
2022/08/10 02:55:38;;;;;;;4.07;3.10;;;23.70;43.10;;;;;;5017771;28;20500;-44
2022/08/10 02:58:09;;;;;;;3.20;2.90;;;23.60;43.50;;;;;;5030572;28;20490;-45
2022/08/10 03:00:45;;;;;;;3.10;2.90;;;23.60;43.50;;;;;;5029960;28;20482;-45
2022/08/10 03:03:18;;;;;;;5.80;3.00;;;23.60;43.50;;;;;;5029199;28;20428;-44
2022/08/10 03:05:46;;;;;;;3.40;2.97;;;23.60;43.50;;;;;;5029636;28;20970;-44
2022/08/10 03:08:14;;;;;;;3.90;3.60;;;23.60;43.60;;;;;;5030637;28;20470;-45
2022/08/10 03:10:41;;;;;;;7.30;3.60;;;23.60;43.60;;;;;;5029975;28;20793;-45
2022/08/10 03:13:09;;;;;;;3.20;3.00;;;23.60;43.70;;;;;;5030360;28;20555;-48
2022/08/10 03:15:37;;;;;;;4.03;3.53;;;23.50;43.50;;;;;;5029638;28;20844;-45
2022/08/10 03:18:04;;;;;;;4.57;2.87;;;23.60;43.60;;;;;;5030498;28;20570;-47
2022/08/10 03:20:34;;;;;;;4.17;3.30;;;23.50;43.70;;;;;;5029934;28;20468;-44
2022/08/10 03:23:01;;;;;;;2.73;2.53;;;23.50;43.60;;;;;;5030328;28;20519;-48
2022/08/10 03:25:28;;;;;;;3.60;3.30;;;23.50;43.80;;;;;;5029618;28;20425;-49
2022/08/10 03:27:55;;;;;;;3.93;3.57;;;23.40;44.00;;;;;;5030391;28;20507;-47
2022/08/10 03:30:21;;;;;;;3.33;2.93;;;23.40;44.00;;;;;;5028110;28;20443;-48
2022/08/10 03:32:49;;;;;;;3.40;3.10;;;23.40;44.00;;;;;;5030618;28;20424;-45
2022/08/10 03:35:16;;;;;;;4.30;3.07;;;23.40;44.10;;;;;;5029966;28;20519;-48
2022/08/10 03:37:42;;;;;;;3.60;3.40;;;23.30;44.10;;;;;;5029932;28;20480;-48
2022/08/10 03:40:08;;;;;;;2.80;2.60;;;23.30;44.30;;;;;;5029842;28;20990;-49
2022/08/10 03:42:38;;;;;;;3.13;2.80;;;23.20;44.20;;;;;;5033521;28;20232;-48
2022/08/10 03:45:05;;;;;;;2.90;2.70;;;23.30;44.40;;;;;;5033369;28;20530;-48
2022/08/10 03:47:33;;;;;;;4.60;3.50;;;23.30;44.20;;;;;;5033622;28;20763;-45
2022/08/10 03:50:01;;;;;;;4.63;3.00;;;23.30;44.30;;;;;;5033291;28;20495;-48
2022/08/10 03:52:27;;;;;;;3.77;2.57;;;23.20;44.20;;;;;;5033987;28;20435;-47
2022/08/10 03:54:54;;;;;;;6.07;3.63;;;23.20;44.20;;;;;;5032524;28;20817;-46
2022/08/10 03:57:20;;;;;;;4.20;3.47;;;23.20;44.50;;;;;;5031227;28;20450;-45
2022/08/10 03:59:47;;;;;;;3.17;2.97;;;23.10;44.50;;;;;;5033239;28;20444;-47
2022/08/10 04:02:13;;;;;;;3.77;3.47;;;23.10;44.60;;;;;;5033758;28;20931;-48
2022/08/10 04:04:39;;;;;;;3.20;3.00;;;23.10;44.60;;;;;;5033154;28;20840;-48
2022/08/10 04:07:05;;;;;;;3.63;3.33;;;23.10;44.70;;;;;;5033165;28;20519;-45
2022/08/10 04:09:35;;;;;;;3.63;3.33;;;23.10;44.70;;;;;;5033013;28;20231;-49
2022/08/10 04:12:01;;;;;;;3.03;2.83;;;23.10;44.90;;;;;;5033511;28;20448;-45
2022/08/10 04:14:27;;;;;;;3.60;3.30;;;23.10;44.90;;;;;;5033023;28;20432;-48
2022/08/10 04:16:52;;;;;;;3.90;3.50;;;23.00;44.80;;;;;;5033002;28;20416;-48
2022/08/10 04:19:19;;;;;;;3.43;3.17;;;23.00;44.80;;;;;;5032720;28;20583;-48
2022/08/10 04:21:50;;;;;;;3.80;3.50;;;23.00;44.90;;;;;;5032346;28;20228;-44
2022/08/10 04:24:20;;;;;;;3.17;2.90;;;23.00;45.10;;;;;;5032790;28;20440;-49
2022/08/10 04:26:46;;;;;;;3.93;3.43;;;22.90;45.10;;;;;;5032924;28;20436;-48
2022/08/10 04:29:13;;;;;;;3.97;3.50;;;22.90;45.20;;;;;;5032662;28;20428;-48
2022/08/10 04:31:41;;;;;;;3.80;3.50;;;22.90;45.30;;;;;;5033373;28;20519;-49
2022/08/10 04:34:08;;;;;;;3.47;3.27;;;22.90;45.20;;;;;;5032495;28;20432;-48
2022/08/10 04:36:35;;;;;;;3.70;3.40;;;22.80;45.20;;;;;;5032424;28;20467;-47
2022/08/10 04:39:01;;;;;;;3.60;3.27;;;22.80;45.30;;;;;;5032442;28;20920;-47
2022/08/10 04:41:27;;;;;;;3.40;3.20;;;22.80;45.70;;;;;;5032758;28;20788;-48
2022/08/10 04:43:53;;;;;;;3.07;2.87;;;22.80;45.60;;;;;;5032504;28;20419;-48
2022/08/10 04:46:18;;;;;;;3.57;3.27;;;22.80;45.60;;;;;;5032556;28;20443;-49
2022/08/10 04:48:44;;;;;;;3.83;3.40;;;22.80;45.70;;;;;;5030758;28;20220;-46
2022/08/10 04:51:13;;;;;;;7.43;4.00;;;22.80;45.80;;;;;;5032709;28;20318;-45
2022/08/10 04:53:39;;;;;;;4.23;3.30;;;22.60;46.50;;;;;;5031853;28;20641;-47
2022/08/10 04:56:07;;;;;;;6.60;3.83;;;22.60;46.40;;;;;;5032145;28;20419;-44
2022/08/10 04:58:33;;;;;;;3.30;3.10;;;22.70;46.40;;;;;;5031955;28;20225;-44
2022/08/10 05:00:59;;;;;;;5.00;4.60;;;22.70;46.30;;;;;;5032446;28;20881;-45
2022/08/10 05:03:25;;;;;;;4.60;3.80;;;22.80;46.20;;;;;;5032091;28;20531;-48
2022/08/10 05:05:50;;;;;;;3.60;3.30;;;22.70;46.40;;;;;;5031934;28;20247;-48
2022/08/10 05:08:16;;;;;;;7.20;3.60;;;22.50;47.10;;;;;;5032536;28;20288;-45
2022/08/10 05:10:41;;;;;;;4.17;3.80;;;22.50;47.20;;;;;;5031653;28;20704;-44
2022/08/10 05:13:07;;;;;;;4.57;4.20;;;22.50;47.20;;;;;;5032445;28;20212;-46
2022/08/10 05:15:33;;;;;;;4.23;3.83;;;22.20;47.60;;;;;;5029685;28;20220;-48
2022/08/10 05:17:59;;;;;;;4.70;3.83;;;22.20;47.80;;;;;;5032283;28;20232;-46
2022/08/10 05:20:24;;;;;;;7.13;3.20;;;22.30;47.70;;;;;;5031496;28;20649;-45
2022/08/10 05:22:50;;;;;;;3.97;3.60;;;22.40;47.60;;;;;;5031830;28;20208;-48
2022/08/10 05:25:18;;;;;;;8.10;3.50;;;22.50;47.30;;;;;;5031249;28;20283;-49
2022/08/10 05:27:44;;;;;;;4.53;3.90;;;22.50;47.80;;;;;;5032142;28;20189;-45
2022/08/10 05:30:16;;;;;;;4.10;3.70;;;22.50;47.80;;;;;;5031155;28;20928;-47
2022/08/10 05:32:42;;;;;;;7.40;4.13;;;22.40;48.00;;;;;;5031948;28;20431;-44
2022/08/10 05:35:07;;;;;;;4.63;3.90;;;22.30;48.20;;;;;;5031201;28;20783;-47
2022/08/10 05:37:34;;;;;;;4.23;3.80;;;22.40;48.30;;;;;;5031557;28;20247;-48
2022/08/10 05:40:03;;;;;;;4.00;3.70;;;22.30;48.30;;;;;;5031384;28;20197;-44
2022/08/10 05:42:29;;;;;;;5.33;4.30;;;22.50;48.00;;;;;;5030227;28;20428;-45
2022/08/10 05:44:55;;;;;;;4.57;3.97;;;22.50;48.10;;;;;;5031270;28;20435;-47
2022/08/10 05:47:21;;;;;;;5.13;3.97;;;22.50;47.90;;;;;;5031479;28;20201;-44
2022/08/10 05:49:48;;;;;;;4.53;4.13;;;22.70;47.80;;;;;;5030925;28;20446;-44
2022/08/10 05:52:14;;;;;;;4.60;3.63;;;22.80;47.40;;;;;;5031910;28;20420;-44
2022/08/10 05:54:41;;;;;;;3.83;3.53;;;22.90;47.30;;;;;;5030966;28;20427;-44
2022/08/10 05:57:07;;;;;;;4.90;4.40;;;23.10;46.90;;;;;;5031339;28;21312;-44
2022/08/10 05:59:33;;;;;;;7.93;3.80;;;23.20;46.50;;;;;;5030553;28;20487;-45
2022/08/10 06:02:08;;;;;;;3.80;3.33;;;23.40;46.40;;;;;;5031437;28;20193;-44
2022/08/10 06:04:40;;;;;;;4.07;3.77;;;23.50;46.00;;;;;;5030160;28;20422;-44
2022/08/10 06:07:07;;;;;;;3.00;2.83;;;23.60;45.30;;;;;;5030891;28;20451;-44
2022/08/10 06:09:35;;;;;;;4.87;3.80;;;23.80;45.20;;;;;;5029051;28;20424;-44
2022/08/10 06:12:03;;;;;;;3.43;3.13;;;23.90;45.00;;;;;;5031044;28;20426;-44
2022/08/10 06:17:16;;;;;;;3.30;3.00;;;24.20;44.60;;;;;;5031311;28;20489;-44
2022/08/10 06:19:43;;;;;;;4.37;3.97;;;24.30;44.30;;;;;;5030618;28;20872;-44
2022/08/10 06:22:10;;;;;;;4.90;3.97;;;24.50;43.80;;;;;;5031263;28;20455;-44
2022/08/10 06:24:39;;;;;;;3.70;3.40;;;24.70;43.70;;;;;;5030758;28;20923;-44
2022/08/10 06:27:06;;;;;;;3.60;3.30;;;24.80;43.40;;;;;;5030469;28;20424;-44
2022/08/10 06:29:34;;;;;;;3.40;3.13;;;24.90;43.00;;;;;;5030274;28;20432;-44
2022/08/10 06:32:01;;;;;;;3.30;3.10;;;25.10;43.30;;;;;;5031163;28;20451;-46
2022/08/10 06:34:31;;;;;;;3.63;3.33;;;25.00;42.90;;;;;;5030217;28;20981;-44
2022/08/10 06:37:01;;;;;;;3.60;3.30;;;25.20;42.90;;;;;;5028699;28;20470;-45
2022/08/10 06:39:27;;;;;;;3.77;3.40;;;25.40;42.40;;;;;;5030184;28;20535;-44
2022/08/10 06:42:05;;;;;;;3.53;3.30;;;25.60;41.80;;;;;;5030746;28;20428;-45
2022/08/10 06:44:40;;;;;;;3.73;2.87;;;25.80;41.30;;;;;;5030277;28;20439;-45
2022/08/10 06:47:10;;;;;;;3.47;3.17;;;26.00;40.70;;;;;;5030270;28;20432;-46
2022/08/10 06:49:37;;;;;;;3.53;2.80;;;26.20;40.40;;;;;;5030306;28;20963;-45
2022/08/10 06:52:04;;;;;;;3.80;2.80;;;26.40;40.20;;;;;;5030959;28;20777;-46
2022/08/10 06:54:31;;;;;;;3.33;3.03;;;26.50;39.90;;;;;;5030197;28;21218;-45
2022/08/10 06:56:58;;;;;;;6.90;3.37;;;26.70;39.60;;;;;;5030289;28;20446;-45
2022/08/10 06:59:34;;;;;;;3.90;3.50;;;26.80;39.10;;;;;;5029909;28;20488;-44
2022/08/10 07:02:08;;;;;;;5.00;3.07;;;27.00;38.90;;;;;;5028950;28;20527;-46
2022/08/10 07:04:42;;;;;;;3.10;2.80;;;27.10;38.70;;;;;;5029979;28;20431;-44
2022/08/10 07:07:13;;;;;;;5.93;2.80;;;27.30;38.50;;;;;;5030289;28;20435;-45
2022/08/10 07:09:39;;;;;;;9.03;2.63;;;27.50;38.00;;;;;;5030076;28;20424;-45
2022/08/10 07:12:07;;;;;;;4.53;2.87;;;27.70;37.80;;;;;;5030670;28;20428;-45
2022/08/10 07:14:36;;;;;;;4.90;2.50;;;27.90;37.50;;;;;;5030657;28;20438;-44
2022/08/10 07:17:03;;;;;;;3.00;2.70;;;28.00;37.30;;;;;;5033759;28;20432;-45
2022/08/10 07:19:31;;;;;;;3.73;2.77;;;28.00;36.80;;;;;;5033895;28;20483;-48
2022/08/10 07:22:00;;;;;;;2.67;2.43;;;28.30;36.50;;;;;;5034488;28;20848;-47
2022/08/10 07:24:26;;;;;;;2.53;2.33;;;28.50;36.20;;;;;;5034081;28;20439;-49
2022/08/10 07:26:54;;;;;;;2.60;2.23;;;28.60;35.00;;;;;;5033664;28;20447;-49
2022/08/10 07:29:25;;;;;;;2.90;2.50;;;28.80;34.70;;;;;;5031965;28;20416;-48
2022/08/10 07:31:51;;;;;;;2.43;2.23;;;28.80;34.60;;;;;;5034201;28;20554;-49
2022/08/10 07:34:20;;;;;;;4.87;2.17;;;28.70;34.30;;;;;;5033461;28;20962;-48
2022/08/10 07:36:46;;;;;;;3.20;2.10;;;28.80;34.50;;;;;;5033596;28;20982;-48
2022/08/10 07:39:13;;;;;;;2.70;2.47;;;29.00;34.20;;;;;;5033537;28;20496;-49
2022/08/10 07:41:43;;;;;;;2.50;2.17;;;28.90;33.80;;;;;;5033827;28;20423;-46
2022/08/10 07:44:11;;;;;;;3.90;2.30;;;28.90;34.30;;;;;;5033491;28;20451;-47
2022/08/10 07:46:43;;;;;;;3.37;2.20;;;28.80;34.10;;;;;;5033362;28;20986;-49
2022/08/10 07:49:17;;;;;;;2.73;2.53;;;28.40;34.90;;;;;;5033783;28;20416;-49
2022/08/10 07:51:43;;;;;;;2.67;2.47;;;28.60;34.90;;;;;;5033915;28;20818;-48
2022/08/10 07:54:14;;;;;;;2.80;2.60;;;28.50;34.10;;;;;;5033164;28;20432;-47
2022/08/10 07:56:43;;;;;;;4.73;2.00;;;28.40;34.60;;;;;;5031702;28;20238;-48
2022/08/10 07:59:13;;;;;;;2.90;2.57;;;28.70;34.10;;;;;;5033128;28;20482;-49
2022/08/10 08:01:43;;;;;;;2.30;2.03;;;28.60;33.90;;;;;;5033761;28;20467;-47
2022/08/10 08:04:11;;;;;;;2.67;2.03;;;28.80;34.10;;;;;;5033000;28;20968;-49
2022/08/10 08:06:38;;;;;;;2.40;2.20;;;28.90;33.70;;;;;;5033448;28;20810;-50
2022/08/10 08:09:05;;;;;;;3.97;2.90;;;28.90;33.50;;;;;;5032955;28;20432;-49
2022/08/10 08:11:31;;;;;;;2.07;1.97;;;29.00;33.90;;;;;;5033666;28;20793;-46
2022/08/10 08:13:59;;;;;;;3.37;2.33;;;29.40;33.10;;;;;;5032705;28;20428;-45
2022/08/10 08:16:25;;;;;;;2.73;2.20;;;29.30;32.80;;;;;;5032957;28;20454;-46
2022/08/10 08:18:54;;;;;;;6.60;2.50;;;29.30;32.70;;;;;;5032659;28;20492;-45
2022/08/10 08:21:20;;;;;;;2.40;2.27;;;29.20;32.40;;;;;;5033423;28;20468;-45
2022/08/10 08:23:49;;;;;;;4.50;2.07;;;29.10;32.10;;;;;;5031238;28;20416;-49
2022/08/10 08:26:17;;;;;;;2.73;2.50;;;29.50;31.70;;;;;;5032292;28;20543;-46
2022/08/10 08:28:44;;;;;;;2.50;2.30;;;30.00;31.70;;;;;;5032618;28;20432;-45
2022/08/10 08:31:12;;;;;;;2.83;2.23;;;30.10;30.90;;;;;;5033159;28;20474;-45
2022/08/10 08:33:39;;;;;;;3.07;2.33;;;30.40;30.70;;;;;;5032250;28;20424;-50
2022/08/10 08:36:06;;;;;;;5.07;2.47;;;30.30;30.20;;;;;;5032756;28;20427;-46
2022/08/10 08:38:34;;;;;;;2.67;2.27;;;30.40;30.00;;;;;;5032272;28;20527;-49
2022/08/10 08:41:11;;;;;;;7.23;2.13;;;30.40;30.50;;;;;;5032942;28;20864;-48
2022/08/10 08:44:14;;;;;;;1.97;1.87;;;30.20;30.00;;;;;;5032262;28;20432;-46
2022/08/10 08:47:10;;;;;;;6.17;2.20;;;29.50;30.40;;;;;;5032160;28;20462;-45
2022/08/10 08:49:54;;;;;;;2.07;1.97;;;29.90;30.80;;;;;;5030474;28;20436;-46
2022/08/10 08:52:35;;;;;;;2.57;2.33;;;30.50;30.40;;;;;;5032641;28;20424;-47
2022/08/10 08:55:43;;;;;;;3.50;1.90;;;30.50;29.60;;;;;;5031602;28;20462;-49
2022/08/10 08:58:27;;;;;;;2.40;2.20;;;29.90;30.50;;;;;;5032462;28;20832;-46
2022/08/10 09:01:19;;;;;;;5.03;2.20;;;29.90;30.50;;;;;;5032606;28;20436;-47
2022/08/10 09:04:13;;;;;;;2.50;2.40;;;30.10;30.10;;;;;;5032046;28;20840;-48
2022/08/10 09:07:14;;;;;;;2.40;1.80;;;30.60;29.30;;;;;;5020211;28;20524;-49
2022/08/10 09:10:03;;;;;;;5.63;2.27;;;30.80;28.50;;;;;;4995028;28;20497;-46
2022/08/10 09:12:43;;;;;;;3.20;2.07;;;31.10;27.80;;;;;;5032066;28;20440;-47
2022/08/10 09:15:44;;;;;;;2.60;1.97;;;31.20;27.10;;;;;;5031537;28;20435;-50
2022/08/10 09:18:15;;;;;;;4.70;2.07;;;31.50;27.20;;;;;;5018759;28;20549;-47
2022/08/10 09:20:57;;;;;;;2.00;1.90;;;31.60;27.10;;;;;;5031503;28;20840;-46
2022/08/10 09:24:03;;;;;;;2.10;1.90;;;31.90;26.60;;;;;;5032041;28;20432;-47
2022/08/10 09:26:41;;;;;;;1.77;1.67;;;31.80;26.20;;;;;;5031741;28;20487;-46
2022/08/10 09:29:13;;;;;;;2.17;1.87;;;32.00;25.20;;;;;;5031309;28;20912;-47
2022/08/10 09:31:45;;;;;;;1.97;1.70;;;32.10;25.40;;;;;;5031885;28;20428;-46
2022/08/10 09:34:29;;;;;;;1.90;1.80;;;32.00;25.20;;;;;;5031236;28;20449;-47
2022/08/10 09:37:15;;;;;;;2.43;1.77;;;31.70;24.60;;;;;;5031305;28;20490;-50
2022/08/10 09:39:56;;;;;;;2.57;2.10;;;31.70;24.60;;;;;;5030265;28;20499;-49
2022/08/10 09:42:50;;;;;;;1.97;1.80;;;31.30;24.50;;;;;;5030476;28;20486;-48
2022/08/10 09:45:15;;;;;;;2.07;1.70;;;31.50;25.10;;;;;;5031187;28;20618;-47
2022/08/10 09:48:01;;;;;;;1.73;1.60;;;31.50;25.10;;;;;;5031791;28;20551;-50
2022/08/10 09:50:41;;;;;;;2.03;1.83;;;31.80;24.30;;;;;;5029810;28;20557;-49
2022/08/10 09:53:39;;;;;;;3.57;1.63;;;31.70;24.50;;;;;;5031650;28;20807;-50
2022/08/10 09:56:26;;;;;;;1.80;1.70;;;32.00;24.50;;;;;;5031208;28;20427;-50
2022/08/10 09:58:58;;;;;;;1.93;1.83;;;32.30;24.60;;;;;;5030771;28;20515;-49
2022/08/10 10:01:36;;;;;;;1.63;1.53;;;32.70;23.70;;;;;;5031233;28;20458;-47
2022/08/10 10:04:04;;;;;;;1.63;1.40;;;32.70;23.60;;;;;;5029432;28;20774;-46
2022/08/10 10:06:54;;;;;;;3.67;1.80;;;32.70;23.20;;;;;;5031029;28;20459;-50
2022/08/10 10:09:37;;;;;;;1.80;1.70;;;32.80;23.90;;;;;;5028987;28;20429;-48
2022/08/10 10:12:28;;;;;;;2.20;2.00;;;32.70;24.10;;;;;;5031548;28;20772;-47
2022/08/10 10:15:29;;;;;;;3.50;1.80;;;32.80;24.00;;;;;;5030351;28;20444;-50
2022/08/10 10:18:04;;;;;;;6.20;1.90;;;32.80;23.00;;;;;;5031074;28;20546;-45
2022/08/10 10:21:00;;;;;;;1.90;1.80;;;33.10;23.60;;;;;;5030585;28;20456;-46
2022/08/10 10:24:03;;;;;;;2.97;1.80;;;33.40;23.80;;;;;;5030528;28;20443;-46
2022/08/10 10:26:49;;;;;;;1.90;1.80;;;33.60;23.80;;;;;;5030794;28;20446;-48
2022/08/10 10:29:29;;;;;;;1.97;1.77;;;33.80;24.20;;;;;;5030745;28;20435;-50
2022/08/10 10:32:28;;;;;;;1.90;1.80;;;33.20;23.80;;;;;;5030833;28;20441;-50
2022/08/10 10:35:26;;;;;;;3.90;2.30;;;32.70;23.30;;;;;;5030094;28;20432;-48
2022/08/10 10:37:54;;;;;;;1.70;1.60;;;32.70;23.90;;;;;;4995564;28;20485;-45
2022/08/10 10:40:24;;;;;;;1.80;1.67;;;33.30;23.20;;;;;;4990811;28;20426;-46
2022/08/10 10:43:18;;;;;;;1.80;1.70;;;33.60;22.70;;;;;;4991695;28;20834;-51
2022/08/10 10:46:24;;;;;;;4.37;1.70;;;33.60;22.40;;;;;;4990845;28;20438;-47
2022/08/10 10:49:05;;;;;;;3.93;1.70;;;33.70;22.70;;;;;;4989590;28;20445;-48
2022/08/10 10:51:46;;;;;;;1.97;1.63;;;33.80;22.80;;;;;;4991131;28;20964;-50
2022/08/10 10:54:23;;;;;;;2.13;1.70;;;33.90;22.40;;;;;;4991318;28;20444;-46
2022/08/10 10:57:18;;;;;;;3.57;1.80;;;34.00;22.60;;;;;;4991021;28;20883;-49
2022/08/10 10:59:43;;;;;;;1.90;1.80;;;34.20;22.70;;;;;;4989592;28;20492;-47
2022/08/10 11:02:27;;;;;;;2.53;1.70;;;34.50;22.50;;;;;;4991409;28;20438;-47
2022/08/10 11:05:24;;;;;;;3.70;2.00;;;34.10;22.40;;;;;;4990236;28;20214;-47
2022/08/10 11:07:52;;;;;;;3.00;1.80;;;33.80;22.50;;;;;;4990077;28;20848;-50
2022/08/10 11:10:24;;;;;;;2.67;2.00;;;33.90;22.60;;;;;;4990700;28;20592;-50
2022/08/10 11:13:11;;;;;;;2.00;1.80;;;34.00;22.70;;;;;;4991070;28;20433;-50
2022/08/10 11:15:57;;;;;;;2.00;1.90;;;34.20;22.60;;;;;;4990292;28;20437;-51
2022/08/10 11:18:51;;;;;;;2.10;1.90;;;34.20;23.00;;;;;;4990671;28;21006;-47
2022/08/10 11:21:34;;;;;;;2.70;1.70;;;34.70;22.40;;;;;;4983419;28;20484;-46
2022/08/10 11:24:17;;;;;;;2.27;2.07;;;34.70;22.00;;;;;;4990557;28;20948;-46
2022/08/10 11:26:54;;;;;;;3.87;1.80;;;34.70;22.20;;;;;;4990650;28;20433;-46
2022/08/10 11:29:58;;;;;;;1.90;1.80;;;34.50;22.30;;;;;;4988849;28;20448;-46
2022/08/10 11:32:42;;;;;;;2.20;2.00;;;34.70;22.00;;;;;;4969119;28;20439;-48
2022/08/10 11:35:30;;;;;;;1.97;1.80;;;34.30;22.50;;;;;;4968450;28;20831;-50
2022/08/10 11:38:29;;;;;;;2.00;1.90;;;34.60;22.60;;;;;;5010803;28;20487;-48
2022/08/10 11:41:24;;;;;;;6.70;1.93;;;34.90;22.40;;;;;;5030383;28;20429;-47
2022/08/10 11:44:08;;;;;;;3.60;2.10;;;34.80;22.60;;;;;;5029706;28;20442;-46
2022/08/10 11:46:39;;;;;;;1.97;1.60;;;35.30;22.10;;;;;;5029719;28;20554;-47
2022/08/10 11:49:12;;;;;;;6.00;2.00;;;35.70;22.10;;;;;;5029844;28;20432;-46
2022/08/10 11:51:49;;;;;;;4.10;1.80;;;35.60;21.90;;;;;;5030261;28;20434;-46
2022/08/10 11:54:45;;;;;;;2.27;2.07;;;35.10;22.20;;;;;;5030113;28;20534;-46
2022/08/10 11:57:13;;;;;;;2.00;1.90;;;35.00;21.80;;;;;;5028376;28;20451;-48
2022/08/10 11:59:58;;;;;;;3.00;1.63;;;35.00;21.80;;;;;;5029635;28;20487;-47
2022/08/10 12:02:35;;;;;;;5.77;1.83;;;34.90;22.20;;;;;;5031650;28;20897;-49
2022/08/10 12:05:07;;;;;;;1.60;1.50;;;35.10;22.10;;;;;;5032533;28;20774;-48
2022/08/10 12:07:37;;;;;;;2.87;1.77;;;35.10;21.90;;;;;;5033527;28;20420;-51
2022/08/10 12:10:04;;;;;;;2.00;1.90;;;35.40;21.40;;;;;;5033053;28;20423;-51
2022/08/10 12:12:35;;;;;;;1.87;1.77;;;35.60;21.40;;;;;;5033545;28;21016;-48
2022/08/10 12:15:14;;;;;;;1.90;1.80;;;35.90;21.40;;;;;;5032463;28;20432;-48
2022/08/10 12:17:54;;;;;;;2.10;1.77;;;35.80;21.30;;;;;;5033369;28;20502;-47
2022/08/10 12:20:34;;;;;;;1.60;1.50;;;35.40;21.20;;;;;;5032808;28;20427;-49
2022/08/10 12:23:21;;;;;;;2.00;1.70;;;35.40;21.10;;;;;;5031713;28;20590;-49
2022/08/10 12:26:06;;;;;;;2.53;1.70;;;35.40;21.20;;;;;;5032556;28;20439;-47
2022/08/10 12:28:59;;;;;;;2.10;2.00;;;35.50;21.30;;;;;;5032646;28;20483;-47
2022/08/10 12:31:50;;;;;;;1.77;1.67;;;36.00;20.80;;;;;;5033227;28;20523;-48
2022/08/10 12:34:29;;;;;;;1.60;1.50;;;36.10;20.90;;;;;;5030479;28;20809;-47
2022/08/10 12:37:11;;;;;;;2.13;1.93;;;36.10;20.90;;;;;;5032997;28;20475;-46
2022/08/10 12:40:04;;;;;;;3.40;1.90;;;36.00;21.00;;;;;;5032583;28;20502;-46
2022/08/10 12:42:38;;;;;;;2.30;2.20;;;35.90;20.40;;;;;;5032720;28;20522;-46
2022/08/10 12:45:31;;;;;;;1.50;1.40;;;35.90;20.70;;;;;;5032292;28;20430;-47
2022/08/10 12:48:04;;;;;;;2.80;1.70;;;35.70;20.50;;;;;;5027629;28;20798;-46
2022/08/10 12:50:42;;;;;;;2.90;2.40;;;35.60;20.60;;;;;;5030686;28;20428;-50
2022/08/10 12:53:29;;;;;;;1.70;1.60;;;35.60;20.80;;;;;;5032793;28;20813;-49
2022/08/10 12:55:56;;;;;;;1.70;1.60;;;35.80;20.70;;;;;;5032630;28;21134;-47
2022/08/10 12:58:24;;;;;;;2.80;2.10;;;35.80;20.40;;;;;;5032442;28;20926;-46
2022/08/10 13:00:52;;;;;;;3.70;1.90;;;35.90;20.50;;;;;;5032271;28;20466;-47
2022/08/10 13:03:21;;;;;;;2.20;2.00;;;36.20;20.60;;;;;;5032579;28;20467;-48
2022/08/10 13:05:49;;;;;;;2.10;1.80;;;36.40;20.30;;;;;;5031691;28;20770;-47
2022/08/10 13:11:03;;;;;;;2.20;2.07;;;36.20;20.00;;;;;;5032642;28;20509;-51
2022/08/10 13:13:36;;;;;;;1.67;1.57;;;35.40;20.40;;;;;;5031756;28;20416;-47
2022/08/10 13:16:04;;;;;;;3.50;3.23;;;34.90;21.10;;;;;;5030398;28;20464;-48
2022/08/10 13:18:40;;;;;;;6.20;2.87;;;34.60;22.00;;;;;;5031651;28;20975;-47
2022/08/10 13:21:09;;;;;;;2.80;2.13;;;34.60;21.40;;;;;;5032157;28;20498;-46
2022/08/10 13:24:02;;;;;;;1.90;1.80;;;35.00;21.30;;;;;;5031687;28;20522;-46
2022/08/10 13:26:31;;;;;;;2.60;2.10;;;35.40;21.30;;;;;;5031283;28;20498;-49